createdAt,value
2018-08-03T00:00:14.929Z,99.90
2018-08-03T00:02:43.655Z,99.90
2018-08-03T00:05:12.395Z,99.90
2018-08-03T00:07:41.101Z,99.90
2018-08-03T00:10:10.314Z,99.90
2018-08-03T00:12:39.126Z,99.90
2018-08-03T00:15:08.182Z,99.90
2018-08-03T00:17:36.908Z,99.90
2018-08-03T00:20:06.399Z,99.90
2018-08-03T00:22:35.417Z,99.90
2018-08-03T00:25:04.963Z,99.90
2018-08-03T00:27:33.688Z,99.90
2018-08-03T00:30:02.405Z,99.90
2018-08-03T00:32:31.174Z,99.90
2018-08-03T00:34:59.912Z,99.90
2018-08-03T00:37:28.655Z,99.90
2018-08-03T00:39:57.381Z,99.90
2018-08-03T00:42:26.141Z,99.90
2018-08-03T00:44:54.878Z,99.90
2018-08-03T00:47:23.677Z,99.90
2018-08-03T00:49:52.744Z,99.90
2018-08-03T00:52:21.497Z,99.90
2018-08-03T00:54:50.368Z,99.90
2018-08-03T00:57:19.077Z,99.90
2018-08-03T00:59:47.840Z,99.90
2018-08-03T01:02:16.601Z,99.90
2018-08-03T01:04:45.382Z,99.90
2018-08-03T01:07:14.117Z,99.90
2018-08-03T01:09:42.821Z,99.90
2018-08-03T01:12:11.592Z,99.90
2018-08-03T01:14:40.941Z,99.90
2018-08-03T01:17:09.715Z,99.90
2018-08-03T01:19:38.443Z,99.90
2018-08-03T01:22:07.187Z,99.90
2018-08-03T01:24:36.761Z,99.90
2018-08-03T01:27:05.674Z,99.90
2018-08-03T01:29:34.552Z,99.90
2018-08-03T01:32:03.306Z,99.90
2018-08-03T01:34:32.043Z,99.90
2018-08-03T01:37:00.772Z,99.90
2018-08-03T01:39:29.513Z,99.90
2018-08-03T01:41:58.322Z,99.90
2018-08-03T01:44:27.103Z,99.90
2018-08-03T01:46:55.842Z,99.90
2018-08-03T01:49:24.575Z,99.90
2018-08-03T01:51:53.312Z,99.90
2018-08-03T01:54:22.108Z,99.90
2018-08-03T01:56:50.884Z,99.90
2018-08-03T01:59:19.725Z,99.90
2018-08-03T02:01:48.488Z,99.90
2018-08-03T02:04:17.238Z,99.90
2018-08-03T02:06:45.965Z,99.90
2018-08-03T02:09:14.720Z,99.90
2018-08-03T02:11:43.482Z,99.90
2018-08-03T02:14:12.189Z,99.90
2018-08-03T02:16:41.694Z,99.90
2018-08-03T02:19:10.440Z,99.90
2018-08-03T02:21:39.175Z,99.90
2018-08-03T02:24:07.898Z,99.90
2018-08-03T02:26:36.645Z,99.90
2018-08-03T02:29:05.412Z,99.90
2018-08-03T02:31:42.914Z,99.90
2018-08-03T02:34:13.177Z,99.90
2018-08-03T02:36:41.897Z,99.90
2018-08-03T02:39:11.863Z,99.90
2018-08-03T02:41:40.667Z,99.90
2018-08-03T02:44:09.864Z,99.90
2018-08-03T02:46:38.739Z,99.90
2018-08-03T02:49:07.517Z,99.90
2018-08-03T02:51:36.268Z,99.90
2018-08-03T02:54:05.040Z,99.90
2018-08-03T02:56:33.822Z,99.90
2018-08-03T02:59:02.567Z,99.90
2018-08-03T03:01:31.582Z,99.90
2018-08-03T03:04:00.328Z,99.90
2018-08-03T03:06:29.120Z,99.90
2018-08-03T03:11:26.376Z,99.90
2018-08-03T03:13:55.133Z,99.90
2018-08-03T03:16:23.964Z,99.90
2018-08-03T03:18:52.706Z,99.90
2018-08-03T03:23:49.917Z,99.90
2018-08-03T03:26:18.772Z,99.90
2018-08-03T03:28:47.534Z,99.90
2018-08-03T03:31:16.293Z,99.90
2018-08-03T03:33:45.020Z,99.90
2018-08-03T03:36:13.807Z,99.90
2018-08-03T03:38:42.507Z,99.90
2018-08-03T03:41:11.286Z,99.90
2018-08-03T03:43:40.092Z,99.90
2018-08-03T03:46:09.076Z,99.90
2018-08-03T03:48:37.866Z,99.90
2018-08-03T03:51:06.777Z,99.90
2018-08-03T03:53:35.549Z,99.90
2018-08-03T03:56:04.488Z,99.90
2018-08-03T03:58:33.254Z,99.90
2018-08-03T04:01:08.614Z,99.90
2018-08-03T04:03:37.346Z,99.90
2018-08-03T04:06:06.498Z,99.90
2018-08-03T04:08:35.446Z,99.90
2018-08-03T04:11:04.339Z,99.90
2018-08-03T04:13:33.036Z,99.90
2018-08-03T04:16:08.683Z,99.90
2018-08-03T04:18:37.450Z,99.90
2018-08-03T04:21:06.719Z,99.90
2018-08-03T04:23:35.459Z,99.90
2018-08-03T04:26:04.851Z,99.90
2018-08-03T04:28:33.622Z,99.90
2018-08-03T04:31:05.296Z,99.90
2018-08-03T04:33:34.390Z,99.90
2018-08-03T04:36:07.194Z,99.90
2018-08-03T04:38:36.657Z,99.90
2018-08-03T04:41:05.980Z,99.90
2018-08-03T04:43:35.916Z,99.90
2018-08-03T04:46:04.672Z,99.90
2018-08-03T04:48:33.475Z,99.90
2018-08-03T04:51:02.228Z,99.90
2018-08-03T04:53:31.296Z,99.90
2018-08-03T04:56:00.304Z,99.90
2018-08-03T04:58:29.097Z,99.90
2018-08-03T05:00:57.906Z,99.90
2018-08-03T05:03:26.645Z,99.90
2018-08-03T05:05:56.268Z,99.90
2018-08-03T05:08:25.042Z,99.90
2018-08-03T05:10:53.805Z,99.90
2018-08-03T05:13:22.530Z,99.90
2018-08-03T05:15:51.334Z,99.90
2018-08-03T05:20:48.647Z,99.90
2018-08-03T05:23:17.492Z,99.90
2018-08-03T05:25:46.194Z,99.90
2018-08-03T05:28:14.960Z,99.90
2018-08-03T05:30:43.778Z,99.90
2018-08-03T05:33:12.511Z,99.90
2018-08-03T05:35:41.303Z,99.90
2018-08-03T05:38:11.241Z,99.90
2018-08-03T05:40:39.959Z,99.90
2018-08-03T05:43:08.704Z,99.90
2018-08-03T05:45:38.026Z,99.90
2018-08-03T05:48:06.845Z,99.90
2018-08-03T05:50:35.568Z,99.90
2018-08-03T05:55:32.823Z,99.90
2018-08-03T05:58:01.716Z,99.90
2018-08-03T06:00:30.538Z,99.90
2018-08-03T06:02:59.349Z,99.90
2018-08-03T06:05:28.239Z,99.90
2018-08-03T06:07:57.397Z,99.90
2018-08-03T06:10:27.033Z,99.90
2018-08-03T06:12:55.841Z,99.90
2018-08-03T06:15:24.553Z,99.90
2018-08-03T06:17:53.340Z,99.90
2018-08-03T06:20:22.158Z,99.90
2018-08-03T06:22:50.974Z,99.90
2018-08-03T06:25:19.757Z,99.90
2018-08-03T06:27:48.494Z,99.90
2018-08-03T06:30:17.237Z,99.90
2018-08-03T06:32:45.972Z,99.90
2018-08-03T06:35:14.808Z,99.90
2018-08-03T06:37:44.356Z,99.90
2018-08-03T06:40:13.169Z,99.90
2018-08-03T06:42:41.937Z,99.90
2018-08-03T06:45:10.722Z,99.90
2018-08-03T06:47:39.483Z,99.90
2018-08-03T06:50:09.214Z,99.90
2018-08-03T06:52:37.978Z,99.90
2018-08-03T06:55:06.898Z,99.90
2018-08-03T06:57:35.737Z,99.90
2018-08-03T07:00:05.623Z,99.90
2018-08-03T07:02:34.449Z,99.90
2018-08-03T07:05:03.283Z,99.90
2018-08-03T07:07:32.115Z,99.90
2018-08-03T07:10:00.889Z,99.90
2018-08-03T07:12:29.628Z,99.90
2018-08-03T07:14:58.551Z,99.90
2018-08-03T07:17:27.335Z,99.90
2018-08-03T07:19:56.213Z,99.90
2018-08-03T07:22:24.990Z,99.90
2018-08-03T07:24:53.689Z,99.90
2018-08-03T07:27:22.496Z,99.90
2018-08-03T07:29:51.314Z,99.90
2018-08-03T07:32:20.410Z,99.90
2018-08-03T07:34:50.178Z,99.90
2018-08-03T07:37:19.040Z,99.90
2018-08-03T07:39:49.141Z,99.90
2018-08-03T07:42:17.939Z,99.90
2018-08-03T07:44:50.809Z,99.90
2018-08-03T07:47:19.716Z,99.90
2018-08-03T07:49:48.505Z,99.90
2018-08-03T07:52:17.753Z,99.90
2018-08-03T07:54:46.488Z,99.90
2018-08-03T07:57:15.277Z,99.90
2018-08-03T07:59:44.023Z,99.90
2018-08-03T08:02:12.850Z,99.90
2018-08-03T08:07:10.144Z,99.90
2018-08-03T08:09:38.966Z,99.90
2018-08-03T08:12:07.811Z,99.90
2018-08-03T08:17:05.552Z,99.90
2018-08-03T08:19:34.257Z,99.90
2018-08-03T08:22:03.112Z,99.90
2018-08-03T08:24:31.883Z,99.90
2018-08-03T08:27:00.640Z,99.90
2018-08-03T08:29:29.536Z,99.90
2018-08-03T08:31:58.518Z,99.90
2018-08-03T08:34:27.381Z,99.90
2018-08-03T08:36:56.451Z,99.90
2018-08-03T08:39:25.698Z,99.90
2018-08-03T08:41:54.500Z,99.90
2018-08-03T08:44:23.386Z,99.90
2018-08-03T08:46:52.201Z,99.90
2018-08-03T08:49:21.422Z,99.90
2018-08-03T08:51:50.733Z,99.90
2018-08-03T08:54:19.542Z,99.90
2018-08-03T08:56:48.295Z,99.90
2018-08-03T08:59:17.094Z,99.90
2018-08-03T09:01:45.865Z,99.90
2018-08-03T09:04:14.704Z,99.90
2018-08-03T09:06:43.547Z,99.90
2018-08-03T09:09:12.417Z,99.90
2018-08-03T09:11:41.142Z,99.90
2018-08-03T09:14:09.948Z,99.90
2018-08-03T09:16:38.729Z,99.90
2018-08-03T09:19:07.570Z,99.90
2018-08-03T09:21:36.569Z,99.90
2018-08-03T09:26:34.011Z,99.90
2018-08-03T09:29:03.256Z,99.90
2018-08-03T09:31:32.010Z,99.90
2018-08-03T09:34:00.750Z,99.90
2018-08-03T09:36:29.705Z,99.90
2018-08-03T09:38:58.398Z,99.90
2018-08-03T09:41:27.233Z,99.90
2018-08-03T09:43:56.061Z,99.90
2018-08-03T09:46:28.400Z,99.90
2018-08-03T09:48:57.238Z,99.90
2018-08-03T09:51:25.997Z,99.90
2018-08-03T09:53:54.820Z,99.90
2018-08-03T09:56:23.686Z,99.90
2018-08-03T09:58:52.623Z,99.90
2018-08-03T10:01:21.371Z,99.90
2018-08-03T10:03:50.240Z,99.90
2018-08-03T10:06:19.005Z,99.90
2018-08-03T10:08:47.722Z,99.90
2018-08-03T10:11:16.483Z,99.90
2018-08-03T10:13:45.194Z,99.90
2018-08-03T10:18:42.356Z,99.90
2018-08-03T10:21:11.072Z,99.90
2018-08-03T10:23:40.085Z,99.90
2018-08-03T10:26:08.869Z,99.90
2018-08-03T10:28:37.632Z,99.70
2018-08-03T10:31:06.375Z,99.60
2018-08-03T10:33:35.116Z,99.80
2018-08-03T10:36:03.878Z,99.50
2018-08-03T10:38:32.598Z,99.10
2018-08-03T10:41:01.386Z,99.00
2018-08-03T10:43:30.161Z,98.70
2018-08-03T10:45:59.009Z,98.70
2018-08-03T10:48:27.838Z,98.30
2018-08-03T10:50:56.670Z,98.00
2018-08-03T10:55:53.900Z,97.80
2018-08-03T10:58:22.668Z,97.70
2018-08-03T11:00:52.085Z,97.60
2018-08-03T11:03:20.884Z,97.20
2018-08-03T11:08:28.991Z,96.70
2018-08-03T11:10:57.774Z,96.40
2018-08-03T11:13:26.674Z,95.80
2018-08-03T11:15:55.445Z,95.70
2018-08-03T11:18:24.261Z,95.30
2018-08-03T11:20:52.995Z,95.20
2018-08-03T11:23:21.817Z,95.00
2018-08-03T11:25:50.611Z,94.90
2018-08-03T11:28:19.489Z,95.10
2018-08-03T11:30:48.295Z,95.00
2018-08-03T11:33:17.047Z,94.90
2018-08-03T11:35:45.775Z,94.40
2018-08-03T11:38:14.507Z,93.90
2018-08-03T11:40:43.281Z,93.80
2018-08-03T11:43:12.037Z,93.90
2018-08-03T11:45:40.854Z,93.80
2018-08-03T11:48:09.590Z,93.70
2018-08-03T11:50:38.400Z,93.10
2018-08-03T11:53:07.367Z,93.00
2018-08-03T11:55:36.130Z,92.70
2018-08-03T11:58:04.883Z,93.00
2018-08-03T12:00:33.629Z,92.90
2018-08-03T12:03:02.603Z,91.50
2018-08-03T12:05:31.463Z,91.20
2018-08-03T12:08:00.357Z,91.70
2018-08-03T12:10:29.098Z,92.20
2018-08-03T12:12:57.865Z,92.30
2018-08-03T12:15:26.661Z,92.00
2018-08-03T12:17:55.439Z,91.90
2018-08-03T12:20:24.170Z,91.90
2018-08-03T12:22:52.943Z,91.60
2018-08-03T12:25:21.737Z,91.60
2018-08-03T12:27:50.575Z,91.90
2018-08-03T12:30:19.335Z,92.10
2018-08-03T12:32:48.089Z,91.80
2018-08-03T12:35:16.842Z,91.80
2018-08-03T12:37:45.634Z,91.80
2018-08-03T12:40:14.401Z,91.70
2018-08-03T12:42:43.209Z,91.30
2018-08-03T12:45:12.015Z,91.50
2018-08-03T12:47:40.832Z,91.50
2018-08-03T12:50:09.575Z,91.60
2018-08-03T12:52:38.936Z,91.60
2018-08-03T12:55:07.617Z,91.60
2018-08-03T13:00:05.886Z,91.20
2018-08-03T13:02:34.680Z,91.10
2018-08-03T13:05:03.409Z,91.10
2018-08-03T13:07:32.146Z,90.80
2018-08-03T13:10:00.924Z,90.90
2018-08-03T13:12:29.666Z,90.70
2018-08-03T13:17:26.978Z,90.80
2018-08-03T13:19:55.793Z,90.40
2018-08-03T13:22:24.677Z,90.30
2018-08-03T13:24:53.538Z,90.40
2018-08-03T13:27:22.328Z,90.20
2018-08-03T13:29:51.069Z,90.40
2018-08-03T13:34:48.286Z,90.10
2018-08-03T13:37:17.021Z,90.10
2018-08-03T13:39:45.764Z,90.00
2018-08-03T13:44:43.077Z,90.20
2018-08-03T13:47:11.791Z,90.10
2018-08-03T13:49:40.568Z,89.90
2018-08-03T13:52:09.280Z,89.90
2018-08-03T13:54:38.067Z,89.80
2018-08-03T13:57:06.844Z,89.90
2018-08-03T13:59:35.599Z,89.00
2018-08-03T14:02:15.918Z,88.70
2018-08-03T14:04:44.808Z,88.20
2018-08-03T14:07:13.666Z,88.50
2018-08-03T14:09:42.446Z,88.50
2018-08-03T14:12:11.166Z,87.60
2018-08-03T14:14:41.035Z,87.10
2018-08-03T14:17:10.273Z,87.10
2018-08-03T14:19:39.207Z,87.00
2018-08-03T14:22:07.969Z,86.90
2018-08-03T14:24:36.775Z,86.80
2018-08-03T14:27:06.139Z,86.40
2018-08-03T14:29:34.948Z,86.70
2018-08-03T14:32:04.780Z,86.60
2018-08-03T14:34:33.641Z,86.70
2018-08-03T14:37:06.825Z,85.90
2018-08-03T14:39:35.529Z,86.30
2018-08-03T14:42:04.589Z,86.70
2018-08-03T14:44:33.406Z,86.60
2018-08-03T14:47:02.193Z,85.80
2018-08-03T14:49:30.943Z,86.30
2018-08-03T14:52:00.186Z,86.00
2018-08-03T14:54:32.403Z,85.60
2018-08-03T14:57:01.149Z,85.70
2018-08-03T14:59:29.936Z,85.90
2018-08-03T15:01:58.763Z,85.00
2018-08-03T15:04:27.604Z,84.40
2018-08-03T15:06:56.402Z,84.20
2018-08-03T15:09:25.169Z,83.90
2018-08-03T15:11:53.932Z,83.80
2018-08-03T15:14:22.702Z,83.70
2018-08-03T15:16:52.165Z,86.70
2018-08-03T15:19:20.956Z,88.10
2018-08-03T15:21:50.741Z,90.00
2018-08-03T15:24:19.513Z,90.30
2018-08-03T15:26:48.256Z,90.40
2018-08-03T15:29:16.991Z,90.60
2018-08-03T15:31:45.728Z,90.90
2018-08-03T15:34:14.457Z,90.70
2018-08-03T15:36:43.264Z,91.00
2018-08-03T15:39:11.959Z,91.10
2018-08-03T15:41:40.701Z,91.10
2018-08-03T15:44:09.443Z,91.10
2018-08-03T15:46:38.181Z,90.80
2018-08-03T15:49:06.927Z,90.90
2018-08-03T15:51:35.708Z,91.00
2018-08-03T15:54:04.461Z,90.80
2018-08-03T15:56:34.076Z,90.70
2018-08-03T15:59:02.845Z,90.60
2018-08-03T16:01:31.572Z,90.60
2018-08-03T16:04:00.426Z,90.90
2018-08-03T16:06:29.218Z,91.40
2018-08-03T16:08:58.008Z,91.70
2018-08-03T16:11:26.800Z,91.80
2018-08-03T16:13:55.646Z,92.00
2018-08-03T16:16:24.584Z,92.10
2018-08-03T16:18:53.486Z,92.30
2018-08-03T16:21:22.486Z,92.20
2018-08-03T16:23:51.513Z,92.30
2018-08-03T16:26:20.354Z,92.20
2018-08-03T16:28:49.965Z,92.30
2018-08-03T16:31:18.876Z,92.40
2018-08-03T16:33:47.628Z,92.40
2018-08-03T16:36:17.369Z,92.40
2018-08-03T16:38:46.479Z,92.20
2018-08-03T16:41:15.394Z,92.20
2018-08-03T16:43:45.258Z,92.30
2018-08-03T16:46:14.045Z,92.00
2018-08-03T16:48:42.851Z,91.90
2018-08-03T16:51:11.704Z,92.10
2018-08-03T16:53:40.459Z,92.10
2018-08-03T16:56:09.235Z,92.20
2018-08-03T16:58:38.169Z,92.00
2018-08-03T17:03:35.753Z,91.80
2018-08-03T17:06:04.723Z,91.90
2018-08-03T17:08:33.595Z,92.00
2018-08-03T17:11:02.346Z,91.50
2018-08-03T17:13:31.171Z,91.50
2018-08-03T17:15:59.991Z,91.50
2018-08-03T17:18:28.846Z,91.50
2018-08-03T17:20:57.638Z,91.30
2018-08-03T17:23:26.513Z,91.10
2018-08-03T17:25:55.394Z,91.20
2018-08-03T17:28:24.242Z,91.10
2018-08-03T17:30:53.180Z,91.00
2018-08-03T17:33:22.106Z,91.10
2018-08-03T17:38:19.399Z,90.90
2018-08-03T17:40:48.268Z,90.70
2018-08-03T17:43:17.026Z,90.80
2018-08-03T17:45:46.093Z,91.00
2018-08-03T17:48:14.828Z,91.10
2018-08-03T17:50:43.723Z,91.20
2018-08-03T17:53:12.645Z,91.30
2018-08-03T17:55:43.065Z,91.20
2018-08-03T17:58:12.939Z,91.10
2018-08-03T18:00:41.694Z,91.10
2018-08-03T18:03:10.421Z,91.00
2018-08-03T18:05:40.331Z,90.50
2018-08-03T18:08:09.101Z,90.20
2018-08-03T18:10:37.925Z,90.10
2018-08-03T18:13:06.738Z,90.10
2018-08-03T18:15:35.578Z,90.10
2018-08-03T18:18:05.087Z,90.00
2018-08-03T18:20:33.878Z,89.50
2018-08-03T18:23:02.873Z,89.20
2018-08-03T18:25:31.677Z,88.60
2018-08-03T18:28:00.449Z,88.10
2018-08-03T18:32:57.612Z,88.10
2018-08-03T18:35:26.552Z,87.50
2018-08-03T18:37:55.489Z,87.60
2018-08-03T18:40:24.485Z,87.50
2018-08-03T18:42:53.246Z,87.40
2018-08-03T18:45:22.034Z,87.70
2018-08-03T18:47:50.910Z,87.50
2018-08-03T18:50:20.153Z,87.40
2018-08-03T18:52:52.968Z,87.20
2018-08-03T18:55:21.772Z,87.40
2018-08-03T18:57:50.753Z,87.60
2018-08-03T19:00:20.880Z,87.60
2018-08-03T19:02:49.650Z,87.80
2018-08-03T19:05:18.500Z,87.90
2018-08-03T19:07:47.931Z,87.90
2018-08-03T19:10:16.765Z,88.00
2018-08-03T19:12:45.613Z,87.90
2018-08-03T19:15:14.549Z,87.70
2018-08-03T19:17:43.403Z,87.90
2018-08-03T19:20:12.934Z,88.10
2018-08-03T19:22:41.804Z,88.20
2018-08-03T19:25:10.687Z,88.40
2018-08-03T19:27:39.637Z,88.40
2018-08-03T19:30:08.535Z,87.90
2018-08-03T19:32:37.302Z,87.70
2018-08-03T19:35:06.104Z,87.10
2018-08-03T19:37:34.910Z,86.50
2018-08-03T19:40:03.826Z,86.70
2018-08-03T19:42:32.588Z,86.80
2018-08-03T19:45:01.366Z,87.40
2018-08-03T19:47:30.112Z,88.10
2018-08-03T19:49:58.954Z,88.60
2018-08-03T19:52:27.853Z,89.80
2018-08-03T19:54:57.613Z,90.20
2018-08-03T19:57:26.502Z,90.50
2018-08-03T19:59:56.248Z,90.90
2018-08-03T20:02:25.107Z,91.10
2018-08-03T20:04:53.971Z,91.30
2018-08-03T20:07:22.848Z,91.50
2018-08-03T20:09:51.621Z,91.70
2018-08-03T20:12:20.631Z,92.00
2018-08-03T20:14:49.463Z,92.30
2018-08-03T20:17:18.189Z,92.70
2018-08-03T20:19:47.954Z,92.90
2018-08-03T20:22:18.154Z,93.20
2018-08-03T20:24:47.298Z,93.30
2018-08-03T20:27:16.674Z,93.60
2018-08-03T20:29:45.656Z,93.80
2018-08-03T20:32:14.573Z,93.90
2018-08-03T20:34:43.493Z,94.00
2018-08-03T20:37:13.558Z,94.20
2018-08-03T20:39:45.181Z,94.50
2018-08-03T20:42:15.624Z,94.70
2018-08-03T20:44:45.585Z,94.90
2018-08-03T20:47:16.864Z,95.20
2018-08-03T20:49:45.617Z,95.40
2018-08-03T20:52:14.449Z,95.60
2018-08-03T20:54:43.207Z,95.90
2018-08-03T20:57:12.009Z,96.10
2018-08-03T20:59:40.855Z,96.40
2018-08-03T21:02:09.897Z,96.60
2018-08-03T21:04:38.721Z,96.90
2018-08-03T21:07:07.467Z,97.20
2018-08-03T21:09:36.202Z,98.00
2018-08-03T21:12:05.164Z,98.10
2018-08-03T21:14:34.008Z,98.50
2018-08-03T21:17:02.796Z,98.80
2018-08-03T21:19:32.020Z,99.20
2018-08-03T21:22:00.762Z,99.70
2018-08-03T21:24:29.488Z,99.60
2018-08-03T21:26:58.276Z,99.90
2018-08-03T21:29:27.132Z,99.90
2018-08-03T21:31:55.885Z,99.90
2018-08-03T21:34:24.696Z,99.90
2018-08-03T21:36:53.400Z,99.90
2018-08-03T21:39:22.160Z,99.90
2018-08-03T21:41:50.926Z,99.90
2018-08-03T21:44:19.624Z,99.90
2018-08-03T21:46:48.341Z,99.90
2018-08-03T21:49:17.141Z,99.90
2018-08-03T21:51:45.873Z,99.90
2018-08-03T21:54:14.611Z,99.90
2018-08-03T21:56:43.571Z,99.90
2018-08-03T21:59:12.316Z,99.90
2018-08-03T22:01:41.088Z,99.90
2018-08-03T22:04:13.388Z,99.90
2018-08-03T22:06:42.136Z,99.90
2018-08-03T22:09:10.983Z,99.90
2018-08-03T22:11:39.855Z,99.90
2018-08-03T22:14:08.774Z,99.90
2018-08-03T22:19:19.932Z,99.90
2018-08-03T22:21:48.749Z,99.90
2018-08-03T22:24:17.625Z,99.90
2018-08-03T22:26:46.333Z,99.90
2018-08-03T22:29:15.152Z,99.90
2018-08-03T22:31:44.510Z,99.90
2018-08-03T22:34:13.241Z,99.90
2018-08-03T22:36:43.456Z,99.90
2018-08-03T22:39:12.242Z,99.90
2018-08-03T22:41:41.030Z,99.90
2018-08-03T22:44:09.820Z,99.90
2018-08-03T22:46:38.647Z,99.90
2018-08-03T22:49:07.446Z,99.90
2018-08-03T22:51:44.594Z,99.90
2018-08-03T22:54:13.744Z,99.90
2018-08-03T22:56:44.341Z,99.90
2018-08-03T22:59:13.100Z,99.90
2018-08-03T23:01:41.881Z,99.90
2018-08-03T23:04:10.951Z,99.90
2018-08-03T23:06:39.628Z,99.90
2018-08-03T23:09:09.068Z,99.90
2018-08-03T23:11:37.861Z,99.90
2018-08-03T23:14:06.658Z,99.90
2018-08-03T23:16:35.438Z,99.90
2018-08-03T23:19:04.217Z,99.90
2018-08-03T23:21:32.940Z,99.90
2018-08-03T23:24:01.653Z,99.90
2018-08-03T23:26:30.542Z,99.90
2018-08-03T23:28:59.270Z,99.90
2018-08-03T23:31:28.011Z,99.90
2018-08-03T23:33:56.883Z,99.90
2018-08-03T23:36:25.677Z,99.90
2018-08-03T23:38:54.488Z,99.90
2018-08-03T23:41:23.295Z,99.90
2018-08-03T23:43:52.032Z,99.90
2018-08-03T23:46:20.841Z,99.90
2018-08-03T23:48:49.637Z,99.90
2018-08-03T23:51:18.388Z,99.90
2018-08-03T23:53:47.114Z,99.90
2018-08-03T23:56:15.872Z,99.90
2018-08-03T23:58:44.711Z,99.90
